Time;durP1;ratioP1;P1;durP2;ratioP2;P2;SDS_P1;SDS_P2;PMS_P1;PMS_P2;Temp;Humidity;BMP_temperature;BMP_pressure;BME280_temperature;BME280_humidity;BME280_pressure;Samples;Min_cycle;Max_cycle;Signal;HPM_P1;HPM_P2
2022/12/30 00:01:20;;;;;;;55.90;36.13;;;;;;;4.92;93.63;100461.84;5071487;28;20190;-57
2022/12/30 00:03:47;;;;;;;56.65;42.45;;;;;;;5.01;94.04;100455.59;5070721;28;20445;-57
2022/12/30 00:06:17;;;;;;;50.10;35.40;;;;;;;5.02;92.99;100457.38;5071611;28;20189;-56
2022/12/30 00:08:48;;;;;;;46.10;34.50;;;;;;;5.04;93.12;100462.53;5068017;28;20240;-57
2022/12/30 00:11:17;;;;;;;52.83;33.20;;;;;;;5.04;93.22;100465.06;5070294;28;20196;-57
2022/12/30 00:33:28;;;;;;;54.47;35.70;;;;;;;4.77;94.19;100446.66;5071904;28;20678;-56
2022/12/30 00:35:55;;;;;;;54.27;37.43;;;;;;;4.77;94.09;100451.75;5072332;28;20181;-56
2022/12/30 00:38:22;;;;;;;59.43;37.13;;;;;;;4.81;94.13;100450.25;5073287;28;20195;-57
2022/12/30 00:43:33;;;;;;;55.80;36.70;;;;;;;4.83;93.76;100447.00;5074633;28;20695;-56
2022/12/30 00:46:00;;;;;;;53.97;36.77;;;;;;;4.86;93.88;100449.72;5074543;28;20566;-56
2022/12/30 00:56:44;;;;;;;64.80;43.03;;;;;;;4.96;94.60;100446.84;5066916;28;20203;-57
2022/12/30 00:59:12;;;;;;;62.43;42.10;;;;;;;4.93;95.10;100445.78;5073094;28;20211;-57
2022/12/30 01:01:39;;;;;;;65.90;48.28;;;;;;;5.01;95.04;100444.53;5073277;28;20434;-56
2022/12/30 01:04:07;;;;;;;64.40;45.27;;;;;;;5.00;93.81;100448.75;5073996;28;20193;-56
2022/12/30 01:06:34;;;;;;;65.27;45.03;;;;;;;4.85;93.43;100450.50;5073787;28;20640;-56
2022/12/30 01:09:01;;;;;;;63.70;44.43;;;;;;;4.79;93.84;100450.16;5073406;28;20244;-57
2022/12/30 01:11:28;;;;;;;70.53;45.30;;;;;;;4.76;94.60;100452.53;5073268;28;20679;-57
2022/12/30 01:13:55;;;;;;;69.70;46.00;;;;;;;4.75;95.35;100444.00;5073441;28;20235;-56
2022/12/30 01:16:22;;;;;;;70.27;47.30;;;;;;;4.73;96.04;100449.81;5073225;28;20185;-55
2022/12/30 01:18:49;;;;;;;70.07;46.57;;;;;;;4.78;95.02;100442.44;5071274;28;20459;-56
2022/12/30 01:21:17;;;;;;;66.77;44.60;;;;;;;4.79;95.11;100439.97;5070254;28;20195;-56
2022/12/30 01:23:44;;;;;;;68.37;45.40;;;;;;;4.78;95.22;100439.91;5073059;28;20195;-57
2022/12/30 01:26:11;;;;;;;70.20;44.70;;;;;;;4.73;94.96;100447.25;5073102;28;20248;-56
2022/12/30 01:28:39;;;;;;;64.70;43.83;;;;;;;4.72;94.51;100437.91;5072234;28;20629;-54
2022/12/30 01:31:08;;;;;;;68.37;46.23;;;;;;;4.75;94.27;100433.81;5070566;28;20189;-56
2022/12/30 01:33:35;;;;;;;64.33;44.37;;;;;;;4.78;94.97;100440.75;5072873;28;20209;-56
2022/12/30 01:36:02;;;;;;;69.43;44.60;;;;;;;4.78;95.15;100434.81;5072706;28;20666;-56
2022/12/30 01:38:31;;;;;;;60.43;44.00;;;;;;;4.76;95.03;100430.50;5072836;28;20189;-56
2022/12/30 01:40:58;;;;;;;67.83;44.17;;;;;;;4.61;94.37;100401.69;5071795;28;20251;-56
2022/12/30 01:43:41;;;;;;;64.57;45.20;;;;;;;4.83;94.57;100428.28;5071319;28;20188;-56
2022/12/30 01:46:07;;;;;;;61.83;42.07;;;;;;;4.81;94.88;100427.34;5064885;28;20192;-57
2022/12/30 01:48:36;;;;;;;59.77;42.87;;;;;;;4.82;94.48;100417.22;5060319;28;20199;-56
2022/12/30 01:51:07;;;;;;;66.80;43.67;;;;;;;4.79;94.56;100424.69;5053029;28;20197;-56
2022/12/30 01:53:39;;;;;;;65.67;43.97;;;;;;;4.78;94.25;100426.34;5052995;28;20217;-55
2022/12/30 01:56:10;;;;;;;57.17;38.93;;;;;;;4.78;93.76;100417.84;5053514;28;20248;-56
2022/12/30 01:58:43;;;;;;;58.17;40.73;;;;;;;4.80;93.82;100421.38;5053600;28;20243;-56
2022/12/30 02:01:10;;;;;;;63.53;40.67;;;;;;;4.79;93.64;100419.59;5052936;28;20271;-57
2022/12/30 02:03:44;;;;;;;62.20;39.97;;;;;;;4.73;93.73;100420.16;5063014;28;20666;-55
2022/12/30 02:06:12;;;;;;;57.90;40.40;;;;;;;4.73;93.28;100406.53;5072811;28;20242;-57
2022/12/30 02:08:40;;;;;;;62.03;40.63;;;;;;;4.75;93.78;100405.81;5073307;28;20219;-56
2022/12/30 02:11:07;;;;;;;59.70;40.80;;;;;;;4.69;93.50;100402.97;5072651;28;20676;-56
2022/12/30 02:13:34;;;;;;;59.30;39.57;;;;;;;4.68;93.77;100400.31;5072473;28;20231;-57
2022/12/30 02:16:26;;;;;;;58.40;41.30;;;;;;;4.69;93.82;100395.34;5072821;28;20206;-57
2022/12/30 02:19:23;;;;;;;55.60;38.43;;;;;;;4.55;93.89;100383.53;5061436;28;20197;-57
2022/12/30 02:22:03;;;;;;;57.13;39.03;;;;;;;4.61;94.17;100398.25;5055813;28;20205;-57
2022/12/30 02:25:06;;;;;;;55.03;36.30;;;;;;;4.61;93.90;100396.59;5052703;28;20193;-57
2022/12/30 02:28:02;;;;;;;57.80;41.17;;;;;;;4.59;94.24;100397.28;5052460;28;20200;-57
2022/12/30 02:30:40;;;;;;;61.37;40.77;;;;;;;4.60;94.44;100401.59;5052982;28;20215;-57
2022/12/30 02:33:19;;;;;;;64.23;40.67;;;;;;;4.57;93.52;100397.22;5071148;28;20200;-57
2022/12/30 02:35:56;;;;;;;64.90;42.27;;;;;;;4.59;93.50;100404.91;5070990;28;20201;-57
2022/12/30 02:38:33;;;;;;;67.83;45.17;;;;;;;4.56;93.53;100399.69;5070876;28;20672;-57
2022/12/30 02:46:42;;;;;;;60.60;41.73;;;;;;;4.55;93.57;100405.56;5052612;28;20195;-57
2022/12/30 02:49:12;;;;;;;68.43;43.10;;;;;;;4.52;93.63;100403.72;5052272;28;20726;-57
2022/12/30 02:54:25;;;;;;;59.27;38.87;;;;;;;4.46;93.64;100402.50;5052101;28;20808;-56
2022/12/30 02:56:53;;;;;;;60.80;39.27;;;;;;;4.43;93.90;100400.66;5052244;28;20264;-56
2022/12/30 03:05:22;;;;;;;55.73;37.97;;;;;;;4.47;93.70;100409.34;5042833;28;20741;-57
2022/12/30 03:07:58;;;;;;;56.30;38.40;;;;;;;4.43;93.95;100403.22;5058010;28;20556;-57
2022/12/30 03:13:21;;;;;;;55.10;40.00;;;;;;;4.44;93.92;100411.72;5051920;28;20219;-56
2022/12/30 03:15:55;;;;;;;56.43;37.90;;;;;;;4.34;93.11;100415.41;5069998;28;20196;-57
2022/12/30 03:18:22;;;;;;;55.30;37.97;;;;;;;4.26;93.66;100409.03;5071955;28;20195;-57
2022/12/30 03:20:52;;;;;;;53.07;38.67;;;;;;;4.21;93.96;100414.66;5071967;28;20190;-57
2022/12/30 03:28:51;;;;;;;49.60;35.70;;;;;;;4.13;94.11;100435.47;5071845;28;20196;-57
2022/12/30 03:31:19;;;;;;;54.10;37.23;;;;;;;4.09;94.31;100438.59;5072115;28;20190;-57
2022/12/30 03:33:47;;;;;;;54.17;34.53;;;;;;;4.05;94.44;100423.09;5071754;28;20277;-57
2022/12/30 03:36:20;;;;;;;56.42;40.70;;;;;;;3.87;94.83;100405.16;5071383;28;20442;-57
2022/12/30 03:38:52;;;;;;;53.77;35.87;;;;;;;4.01;94.70;100432.22;5071661;28;20662;-57
2022/12/30 03:41:20;;;;;;;54.53;35.43;;;;;;;3.89;94.40;100408.66;5072495;28;20220;-57
2022/12/30 03:43:48;;;;;;;47.67;33.90;;;;;;;3.87;94.16;100427.16;5071757;28;20191;-57
2022/12/30 03:46:15;;;;;;;59.53;34.83;;;;;;;3.91;94.53;100437.56;5071777;28;20265;-57
2022/12/30 03:48:41;;;;;;;58.40;35.93;;;;;;;3.84;94.05;100432.94;5072211;28;20194;-57
2022/12/30 03:51:08;;;;;;;52.77;34.60;;;;;;;3.80;94.76;100437.72;5071226;28;20198;-57
2022/12/30 03:53:36;;;;;;;50.33;33.70;;;;;;;3.78;94.61;100431.69;5075407;28;20223;-56
2022/12/30 03:56:03;;;;;;;52.03;34.43;;;;;;;3.78;94.84;100441.84;5075593;28;20183;-56
2022/12/30 03:58:30;;;;;;;49.17;32.60;;;;;;;3.77;94.78;100445.19;5075440;28;20209;-56
2022/12/30 04:00:57;;;;;;;48.97;33.23;;;;;;;3.72;94.79;100439.84;5075446;28;20187;-56
2022/12/30 04:03:23;;;;;;;51.40;33.83;;;;;;;3.78;95.11;100441.84;5075667;28;20600;-55
2022/12/30 04:05:54;;;;;;;48.47;34.03;;;;;;;3.74;94.84;100448.41;5075090;28;20183;-56
2022/12/30 04:08:21;;;;;;;44.47;33.80;;;;;;;3.76;94.97;100443.44;5075675;28;20194;-56
2022/12/30 04:10:49;;;;;;;46.10;32.40;;;;;;;3.76;95.23;100440.91;5075114;28;20653;-56
2022/12/30 04:13:16;;;;;;;46.37;33.70;;;;;;;3.76;94.72;100441.78;5074908;28;20215;-56
2022/12/30 04:15:47;;;;;;;46.53;31.57;;;;;;;3.59;94.62;100399.28;5075084;28;20193;-56
2022/12/30 04:18:14;;;;;;;50.50;33.23;;;;;;;3.79;94.63;100441.94;5075159;28;20191;-56
2022/12/30 04:20:41;;;;;;;48.27;34.00;;;;;;;3.80;94.49;100446.25;5074916;28;20184;-56
2022/12/30 04:23:08;;;;;;;53.90;39.90;;;;;;;3.88;95.20;100444.13;5074509;28;20438;-56
2022/12/30 04:25:36;;;;;;;48.83;34.97;;;;;;;3.93;94.19;100451.22;5074870;28;20190;-56
2022/12/30 04:28:04;;;;;;;51.10;33.90;;;;;;;3.98;93.62;100446.44;5074804;28;20192;-56
2022/12/30 04:30:32;;;;;;;50.97;40.58;;;;;;;4.07;93.98;100441.84;5074160;28;20502;-56
2022/12/30 04:32:59;;;;;;;47.33;34.00;;;;;;;4.12;93.89;100441.31;5074571;28;20200;-56
2022/12/30 04:35:25;;;;;;;46.60;33.13;;;;;;;4.10;92.93;100440.38;5074650;28;20601;-56
2022/12/30 04:37:52;;;;;;;50.03;35.07;;;;;;;4.11;92.66;100438.72;5074812;28;20319;-56
2022/12/30 04:40:19;;;;;;;49.57;33.83;;;;;;;4.13;93.07;100443.09;5074903;28;20547;-56
2022/12/30 04:42:46;;;;;;;50.57;34.47;;;;;;;4.04;92.83;100444.22;5074645;28;20539;-56
2022/12/30 04:45:14;;;;;;;50.73;33.87;;;;;;;4.00;92.95;100448.28;5074358;28;20253;-56
2022/12/30 04:47:41;;;;;;;52.03;34.33;;;;;;;3.99;93.27;100448.16;5074553;28;20194;-56
2022/12/30 04:50:10;;;;;;;48.00;33.80;;;;;;;3.84;92.75;100421.88;5074824;28;20190;-55
2022/12/30 04:52:37;;;;;;;53.27;35.23;;;;;;;4.01;92.96;100444.06;5074305;28;20201;-56
2022/12/30 04:55:05;;;;;;;46.97;34.30;;;;;;;3.98;92.79;100447.28;5074131;28;20222;-56
2022/12/30 04:57:32;;;;;;;55.80;37.53;;;;;;;3.99;92.89;100456.69;5074355;28;20192;-56
2022/12/30 04:59:58;;;;;;;59.93;38.47;;;;;;;3.95;92.96;100451.34;5073501;28;20184;-56
2022/12/30 05:02:26;;;;;;;55.67;37.40;;;;;;;3.95;93.27;100447.13;5074624;28;20539;-56
2022/12/30 05:04:53;;;;;;;52.97;35.80;;;;;;;3.94;93.11;100459.75;5074586;28;20599;-56
2022/12/30 05:07:20;;;;;;;46.90;33.67;;;;;;;3.87;93.35;100458.53;5074143;28;20201;-56
2022/12/30 05:09:47;;;;;;;47.10;34.33;;;;;;;3.80;93.20;100453.88;5074047;28;20656;-56
2022/12/30 05:12:13;;;;;;;52.60;34.77;;;;;;;3.74;93.81;100455.16;5074531;28;20212;-56
2022/12/30 05:14:40;;;;;;;48.17;35.00;;;;;;;3.77;94.00;100456.22;5074041;28;20248;-56
2022/12/30 05:17:07;;;;;;;53.92;42.13;;;;;;;3.87;93.42;100461.06;5072666;28;20433;-56
2022/12/30 05:19:35;;;;;;;51.07;36.97;;;;;;;3.91;93.11;100465.53;5074103;28;20194;-56
2022/12/30 05:22:02;;;;;;;54.35;37.38;;;;;;;3.96;93.29;100469.22;5073419;28;20901;-57
2022/12/30 05:27:12;;;;;;;45.63;32.87;;;;;;;3.95;92.78;100475.09;5052579;28;20199;-57
2022/12/30 05:29:39;;;;;;;50.23;34.10;;;;;;;3.89;92.68;100469.66;5073772;28;20197;-57
2022/12/30 05:32:06;;;;;;;49.90;32.57;;;;;;;3.91;92.46;100473.16;5073690;28;20213;-57
2022/12/30 05:34:32;;;;;;;50.17;33.27;;;;;;;3.87;93.23;100473.78;5073469;28;20217;-57
2022/12/30 05:37:00;;;;;;;46.17;32.63;;;;;;;3.84;92.78;100481.22;5073341;28;20188;-57
2022/12/30 05:39:27;;;;;;;49.03;33.63;;;;;;;3.65;93.38;100473.31;5073870;28;20281;-57
2022/12/30 05:41:54;;;;;;;59.83;38.37;;;;;;;3.78;92.95;100472.34;5073324;28;20189;-56
2022/12/30 05:44:21;;;;;;;54.40;38.57;;;;;;;3.77;92.58;100476.56;5068412;28;20543;-57
2022/12/30 05:46:47;;;;;;;55.67;36.93;;;;;;;3.66;92.34;100466.53;5069447;28;20254;-57
2022/12/30 05:49:14;;;;;;;55.53;40.30;;;;;;;3.71;92.10;100471.09;5072601;28;20855;-57
2022/12/30 05:51:41;;;;;;;51.93;34.27;;;;;;;3.70;91.85;100477.00;5073183;28;20725;-56
2022/12/30 05:54:09;;;;;;;40.73;30.77;;;;;;;3.64;92.12;100481.72;5072916;28;20720;-56
2022/12/30 05:56:36;;;;;;;50.13;34.87;;;;;;;3.62;91.66;100482.41;5072873;28;20566;-56
2022/12/30 05:59:03;;;;;;;42.93;31.67;;;;;;;3.59;91.60;100485.66;5072965;28;20249;-56
2022/12/30 06:01:29;;;;;;;45.00;31.13;;;;;;;3.60;91.84;100481.44;5071967;28;20203;-56
2022/12/30 06:03:56;;;;;;;48.17;31.40;;;;;;;3.54;92.24;100480.28;5070022;28;20196;-56
2022/12/30 06:06:23;;;;;;;52.33;33.70;;;;;;;3.57;92.41;100487.22;5072882;28;20188;-57
2022/12/30 06:08:50;;;;;;;47.20;35.13;;;;;;;3.61;91.98;100481.53;5072652;28;20184;-55
2022/12/30 06:11:18;;;;;;;49.03;34.10;;;;;;;3.63;92.01;100491.78;5072830;28;20193;-56
2022/12/30 06:13:45;;;;;;;44.43;29.20;;;;;;;3.53;92.21;100490.38;5072234;28;20301;-57
2022/12/30 06:16:12;;;;;;;39.87;29.00;;;;;;;3.46;92.28;100494.19;5070020;28;20651;-56
2022/12/30 06:18:39;;;;;;;39.97;28.93;;;;;;;3.60;92.90;100492.47;5072386;28;20198;-56
2022/12/30 06:21:06;;;;;;;43.30;29.13;;;;;;;3.60;92.46;100489.06;5067711;28;20205;-56
2022/12/30 06:23:33;;;;;;;43.20;29.83;;;;;;;3.52;92.45;100497.09;5063842;28;20191;-55
2022/12/30 06:26:00;;;;;;;42.73;29.10;;;;;;;3.50;92.02;100498.69;5071432;28;20189;-56
2022/12/30 06:28:30;;;;;;;48.70;29.40;;;;;;;3.55;92.29;100501.47;5071799;28;20270;-57
2022/12/30 06:30:57;;;;;;;44.55;30.88;;;;;;;3.60;91.90;100502.63;5069072;28;20475;-57
2022/12/30 06:33:24;;;;;;;41.70;31.30;;;;;;;3.60;92.24;100495.00;5071106;28;20286;-56
2022/12/30 06:35:51;;;;;;;52.77;30.80;;;;;;;3.66;92.14;100495.38;5071385;28;20742;-57
2022/12/30 06:38:18;;;;;;;44.03;29.13;;;;;;;3.55;92.03;100474.41;5072095;28;20240;-56
2022/12/30 06:40:45;;;;;;;40.03;29.83;;;;;;;3.93;91.93;100514.78;5071389;28;20191;-57
2022/12/30 06:43:12;;;;;;;42.97;28.43;;;;;;;4.19;91.40;100521.41;5072280;28;20237;-56
2022/12/30 06:45:41;;;;;;;43.33;27.83;;;;;;;4.24;90.07;100525.06;5072054;28;20197;-56
2022/12/30 06:48:07;;;;;;;36.60;25.70;;;;;;;4.26;89.05;100525.19;5072091;28;20217;-56
2022/12/30 06:50:36;;;;;;;38.77;26.53;;;;;;;4.29;89.40;100523.66;5070475;28;20189;-57
2022/12/30 06:53:02;;;;;;;38.70;26.47;;;;;;;4.34;89.69;100531.59;5072075;28;20201;-56
2022/12/30 06:55:29;;;;;;;46.05;33.22;;;;;;;4.73;90.01;100526.16;5068665;28;20524;-57
2022/12/30 06:57:56;;;;;;;41.07;28.73;;;;;;;5.26;87.45;100527.44;5068704;28;20547;-57
2022/12/30 07:00:23;;;;;;;38.37;27.17;;;;;;;5.49;84.92;100531.22;5069663;28;20197;-57
2022/12/30 07:02:51;;;;;;;40.13;30.65;;;;;;;5.52;84.31;100526.25;5071483;28;20426;-57
2022/12/30 07:05:18;;;;;;;40.43;27.33;;;;;;;5.49;83.53;100526.13;5072204;28;20559;-56
2022/12/30 07:07:44;;;;;;;42.00;29.47;;;;;;;5.39;83.84;100534.06;5071882;28;20215;-56
2022/12/30 07:10:11;;;;;;;42.00;27.73;;;;;;;5.30;83.46;100539.53;5071676;28;20192;-56
2022/12/30 07:12:38;;;;;;;39.27;27.07;;;;;;;5.20;84.07;100537.28;5071746;28;20212;-56
2022/12/30 07:15:06;;;;;;;37.77;26.43;;;;;;;5.16;84.18;100542.16;5071584;28;20227;-56
2022/12/30 07:17:33;;;;;;;36.07;24.97;;;;;;;5.20;85.06;100536.41;5071684;28;20202;-56
2022/12/30 07:20:01;;;;;;;39.47;26.87;;;;;;;5.11;84.59;100533.41;5071793;28;20199;-56
2022/12/30 07:22:28;;;;;;;41.43;28.00;;;;;;;5.11;85.57;100541.03;5071547;28;20211;-56
2022/12/30 07:24:54;;;;;;;45.70;27.47;;;;;;;5.07;85.31;100542.53;5071938;28;20590;-56
2022/12/30 07:27:21;;;;;;;37.60;27.07;;;;;;;5.08;86.25;100546.81;5073998;28;20716;-56
2022/12/30 07:29:48;;;;;;;35.87;26.70;;;;;;;5.11;86.46;100535.94;5075558;28;20195;-56
2022/12/30 07:32:15;;;;;;;36.87;29.27;;;;;;;5.13;86.81;100554.72;5075453;28;20264;-56
2022/12/30 07:34:41;;;;;;;47.57;29.57;;;;;;;5.15;86.53;100543.81;5074969;28;20219;-56
2022/12/30 07:37:10;;;;;;;37.83;29.13;;;;;;;5.22;86.50;100545.88;5075773;28;20198;-56
2022/12/30 07:39:38;;;;;;;41.73;28.93;;;;;;;5.25;86.63;100553.69;5074794;28;20279;-56
2022/12/30 07:42:05;;;;;;;40.03;29.47;;;;;;;5.29;86.92;100552.19;5071046;28;20193;-56
2022/12/30 07:44:31;;;;;;;40.17;28.00;;;;;;;5.27;86.96;100543.63;5068562;28;20215;-56
2022/12/30 07:46:58;;;;;;;39.17;27.33;;;;;;;5.41;86.83;100550.31;5054003;28;20262;-56
2022/12/30 07:49:25;;;;;;;38.37;27.83;;;;;;;5.49;86.31;100546.50;5056001;28;20201;-56
2022/12/30 07:51:52;;;;;;;38.60;27.33;;;;;;;5.47;86.87;100542.97;5055080;28;20191;-56
2022/12/30 07:54:20;;;;;;;41.43;31.70;;;;;;;5.66;87.37;100549.94;5054540;28;20431;-56
2022/12/30 07:56:47;;;;;;;36.60;25.63;;;;;;;5.67;86.51;100521.97;5055216;28;20970;-56
2022/12/30 07:59:14;;;;;;;35.77;27.17;;;;;;;5.87;85.95;100546.00;5069547;28;20200;-56
2022/12/30 08:01:41;;;;;;;38.37;26.33;;;;;;;5.89;86.02;100545.25;5075302;28;20279;-57
2022/12/30 08:04:08;;;;;;;35.13;25.53;;;;;;;5.97;86.31;100558.41;5072918;28;20192;-56
2022/12/30 08:06:35;;;;;;;36.20;25.67;;;;;;;6.09;86.15;100559.03;5074155;28;20190;-56
2022/12/30 08:09:04;;;;;;;40.07;27.67;;;;;;;6.18;86.91;100554.38;5074109;28;20719;-56
2022/12/30 08:11:32;;;;;;;35.23;24.63;;;;;;;6.29;86.39;100553.25;5074138;28;20469;-57
2022/12/30 08:13:59;;;;;;;37.00;30.33;;;;;;;6.39;86.21;100552.91;5072939;28;20498;-57
2022/12/30 08:16:26;;;;;;;36.40;25.07;;;;;;;6.52;87.23;100551.84;5069069;28;20218;-59
2022/12/30 08:18:53;;;;;;;41.03;28.30;;;;;;;6.56;86.79;100557.97;5072370;28;20210;-57
2022/12/30 08:21:21;;;;;;;36.87;26.23;;;;;;;6.61;86.97;100562.50;5073181;28;20192;-57
2022/12/30 08:23:48;;;;;;;37.87;27.93;;;;;;;6.73;85.98;100554.56;5074946;28;20219;-56
2022/12/30 08:26:17;;;;;;;39.93;28.17;;;;;;;6.83;86.10;100543.97;5074554;28;20262;-57
2022/12/30 08:28:45;;;;;;;42.13;30.50;;;;;;;6.91;85.92;100553.75;5074352;28;20688;-57
2022/12/30 08:31:14;;;;;;;36.73;29.37;;;;;;;7.01;85.39;100555.06;5060995;28;20190;-57
2022/12/30 08:33:45;;;;;;;46.37;30.27;;;;;;;7.05;85.78;100550.19;5055026;28;20189;-57
2022/12/30 08:36:13;;;;;;;44.07;33.13;;;;;;;7.09;84.65;100546.06;5056617;28;20223;-57
2022/12/30 08:38:42;;;;;;;50.33;33.13;;;;;;;7.15;83.56;100543.81;5056208;28;20194;-57
2022/12/30 08:41:12;;;;;;;52.40;34.63;;;;;;;7.20;83.96;100547.44;5061260;28;20198;-58
2022/12/30 08:43:39;;;;;;;50.20;34.13;;;;;;;7.29;83.79;100547.88;5074179;28;20641;-56
2022/12/30 08:46:07;;;;;;;58.63;34.70;;;;;;;7.42;83.98;100534.84;5074045;28;20204;-56
2022/12/30 08:48:34;;;;;;;44.87;32.57;;;;;;;7.59;83.48;100539.03;5067643;28;20195;-56
2022/12/30 08:51:02;;;;;;;49.07;34.67;;;;;;;7.67;82.54;100535.13;5069035;28;20202;-57
2022/12/30 08:53:29;;;;;;;45.33;34.63;;;;;;;7.56;82.05;100497.97;5073944;28;20688;-57
2022/12/30 08:56:00;;;;;;;44.43;33.17;;;;;;;7.22;81.47;100442.75;5074169;28;20226;-57
2022/12/30 08:58:27;;;;;;;45.80;32.53;;;;;;;7.70;81.34;100524.16;5074724;28;20588;-58
2022/12/30 09:00:54;;;;;;;46.43;35.50;;;;;;;7.68;81.36;100513.88;5073813;28;20190;-57
2022/12/30 09:03:22;;;;;;;50.75;40.90;;;;;;;7.84;81.50;100515.41;5073010;28;20449;-57
2022/12/30 09:05:52;;;;;;;51.40;36.40;;;;;;;7.94;80.46;100511.56;5074003;28;20257;-57
2022/12/30 09:08:19;;;;;;;42.20;32.93;;;;;;;7.90;80.83;100515.69;5073837;28;20807;-57
2022/12/30 09:10:55;;;;;;;45.63;33.37;;;;;;;8.00;80.23;100516.94;5073835;28;20187;-58
2022/12/30 09:13:22;;;;;;;41.97;31.47;;;;;;;8.06;79.30;100512.97;5074008;28;20241;-56
2022/12/30 09:15:49;;;;;;;40.03;29.10;;;;;;;6.60;79.25;100274.78;5073840;28;20215;-58
2022/12/30 09:18:15;;;;;;;43.63;29.43;;;;;;;8.10;78.98;100508.84;5073719;28;20195;-57
2022/12/30 09:20:44;;;;;;;43.93;31.70;;;;;;;8.03;79.63;100501.72;5073411;28;20629;-57
2022/12/30 09:23:11;;;;;;;43.43;32.53;;;;;;;8.07;79.67;100508.72;5073430;28;20196;-57
2022/12/30 09:25:38;;;;;;;55.28;40.83;;;;;;;8.10;80.31;100504.59;5072594;28;20437;-57
2022/12/30 09:28:04;;;;;;;72.43;43.53;;;;;;;8.14;80.20;100493.69;5073340;28;20241;-56
2022/12/30 09:30:31;;;;;;;65.47;41.17;;;;;;;8.27;79.99;100489.97;5073158;28;20217;-57
2022/12/30 09:32:58;;;;;;;56.30;37.80;;;;;;;8.30;79.89;100479.84;5073319;28;20191;-56
2022/12/30 09:35:25;;;;;;;63.93;37.97;;;;;;;8.34;80.09;100484.28;5072752;28;20673;-57
2022/12/30 09:37:53;;;;;;;58.50;35.17;;;;;;;8.34;79.94;100480.84;5063377;28;20657;-57
2022/12/30 09:40:25;;;;;;;46.70;33.50;;;;;;;8.35;80.29;100480.91;5064771;28;20556;-57
2022/12/30 09:45:53;;;;;;;48.30;30.40;;;;;;;8.39;80.48;100466.53;5052919;28;20201;-57
2022/12/30 09:48:25;;;;;;;44.13;28.60;;;;;;;8.24;80.41;100452.28;5053122;28;20188;-58
2022/12/30 09:50:58;;;;;;;39.13;27.40;;;;;;;8.44;80.20;100470.16;5051659;28;20199;-57
2022/12/30 09:53:37;;;;;;;46.40;28.53;;;;;;;8.46;80.03;100459.16;5067424;28;20286;-58
2022/12/30 09:56:12;;;;;;;53.37;33.77;;;;;;;8.35;79.55;100414.31;5060492;28;20215;-57
2022/12/30 09:58:39;;;;;;;54.80;36.13;;;;;;;8.58;79.48;100439.16;5070509;28;20326;-57
2022/12/30 10:01:17;;;;;;;55.67;37.77;;;;;;;8.86;79.68;100452.25;5072122;28;20183;-56
2022/12/30 10:03:44;;;;;;;67.00;47.53;;;;;;;8.95;78.24;100449.16;5072268;28;20179;-56
2022/12/30 10:06:22;;;;;;;64.90;50.10;;;;;;;8.92;78.10;100427.66;5070291;28;20190;-56
2022/12/30 10:09:20;;;;;;;72.60;50.27;;;;;;;8.97;77.94;100433.81;5071424;28;20187;-57
2022/12/30 10:12:01;;;;;;;77.20;53.83;;;;;;;8.94;78.28;100429.47;5066061;28;20249;-57
2022/12/30 10:14:36;;;;;;;88.30;54.87;;;;;;;8.90;78.37;100402.84;5071571;28;20227;-57
2022/12/30 10:17:20;;;;;;;74.93;56.53;;;;;;;9.17;78.01;100417.50;5052476;28;20192;-56
2022/12/30 10:19:55;;;;;;;86.78;61.97;;;;;;;9.31;77.49;100412.03;5052103;28;20427;-56
2022/12/30 10:22:32;;;;;;;79.27;54.93;;;;;;;9.44;77.11;100406.53;5058425;28;20844;-56
2022/12/30 10:25:14;;;;;;;71.97;52.13;;;;;;;9.55;76.99;100409.47;5065407;28;20202;-56
2022/12/30 10:27:45;;;;;;;56.40;40.87;;;;;;;9.64;76.47;100406.34;5072177;28;20192;-57
2022/12/30 10:30:15;;;;;;;51.50;38.83;;;;;;;9.58;75.87;100386.50;5072386;28;20184;-57
2022/12/30 10:32:47;;;;;;;46.43;34.13;;;;;;;9.83;75.60;100406.16;5072169;28;20275;-56
2022/12/30 10:35:19;;;;;;;49.87;35.33;;;;;;;9.90;74.51;100400.41;5071751;28;20223;-56
2022/12/30 10:37:46;;;;;;;49.30;36.03;;;;;;;10.00;73.92;100400.75;5071756;28;20190;-56
2022/12/30 10:40:16;;;;;;;47.20;33.73;;;;;;;10.08;73.28;100395.84;5071558;28;20188;-56
2022/12/30 10:43:03;;;;;;;47.23;30.07;;;;;;;10.14;72.85;100395.22;5071636;28;20202;-56
2022/12/30 10:45:49;;;;;;;38.20;32.55;;;;;;;10.11;72.83;100393.38;5070580;28;20425;-56
2022/12/30 10:48:42;;;;;;;39.60;29.03;;;;;;;10.21;72.23;100387.78;5071682;28;20732;-56
2022/12/30 10:51:15;;;;;;;33.07;26.13;;;;;;;10.31;71.58;100378.66;5049004;28;20249;-57
2022/12/30 10:53:46;;;;;;;38.87;28.33;;;;;;;10.31;71.96;100371.81;5072202;28;20184;-56
2022/12/30 10:56:20;;;;;;;36.70;26.40;;;;;;;10.27;72.06;100369.13;5071743;28;20288;-56
2022/12/30 10:58:47;;;;;;;39.53;28.47;;;;;;;10.40;72.19;100372.13;5068679;28;20188;-57
2022/12/30 11:01:19;;;;;;;37.93;25.67;;;;;;;10.42;72.14;100365.31;5071031;28;20180;-58
2022/12/30 11:03:49;;;;;;;35.03;26.20;;;;;;;10.26;72.08;100337.41;5071851;28;20187;-59
2022/12/30 11:06:22;;;;;;;39.37;26.63;;;;;;;10.46;71.57;100362.03;5071001;28;20654;-57
2022/12/30 11:08:50;;;;;;;32.80;25.00;;;;;;;10.44;72.56;100357.63;5071220;28;20245;-57
2022/12/30 11:11:19;;;;;;;35.00;25.67;;;;;;;10.52;71.88;100351.91;5071483;28;20188;-57
2022/12/30 11:16:41;;;;;;;42.77;25.77;;;;;;;10.60;70.90;100344.47;5071125;28;20226;-57
2022/12/30 11:19:24;;;;;;;40.27;28.60;;;;;;;10.75;70.36;100346.59;5071002;28;20191;-58
2022/12/30 11:21:53;;;;;;;40.70;28.77;;;;;;;10.74;69.74;100338.00;5071643;28;20600;-57
2022/12/30 11:24:22;;;;;;;42.50;27.80;;;;;;;10.82;69.73;100343.38;5071384;28;20245;-57
2022/12/30 11:26:51;;;;;;;34.23;26.97;;;;;;;10.80;69.46;100340.75;5070957;28;20199;-56
2022/12/30 11:29:20;;;;;;;37.20;27.70;;;;;;;10.90;69.99;100342.78;5070790;28;20187;-57
2022/12/30 11:31:51;;;;;;;38.60;28.20;;;;;;;10.90;69.89;100334.19;5070870;28;20188;-57
2022/12/30 11:34:25;;;;;;;40.53;28.90;;;;;;;11.02;69.15;100329.38;5071808;28;20531;-57
2022/12/30 11:36:52;;;;;;;36.37;27.80;;;;;;;11.11;69.03;100327.06;5070903;28;20222;-57
2022/12/30 11:39:33;;;;;;;36.73;27.33;;;;;;;11.07;68.99;100336.38;5070820;28;20225;-57
2022/12/30 11:42:18;;;;;;;32.40;25.67;;;;;;;11.06;68.39;100308.06;5071092;28;20244;-57
2022/12/30 11:44:44;;;;;;;36.40;27.00;;;;;;;11.22;67.92;100323.94;5069068;28;20191;-56
2022/12/30 11:47:13;;;;;;;35.23;27.70;;;;;;;11.24;67.18;100322.28;5070576;28;20188;-57
2022/12/30 11:49:47;;;;;;;34.53;26.90;;;;;;;11.23;67.67;100320.53;5066476;28;20192;-58
2022/12/30 11:52:20;;;;;;;37.70;30.85;;;;;;;11.25;68.14;100303.44;5064308;28;20454;-57
2022/12/30 11:54:52;;;;;;;36.53;27.47;;;;;;;11.41;67.23;100312.44;5068560;28;20551;-57
2022/12/30 11:57:26;;;;;;;36.73;27.40;;;;;;;11.52;67.67;100315.28;5068109;28;20273;-56
2022/12/30 11:59:56;;;;;;;33.33;26.50;;;;;;;11.44;66.99;100286.78;5068934;28;20534;-57
2022/12/30 12:02:27;;;;;;;36.60;27.13;;;;;;;11.62;66.89;100312.13;5069585;28;20666;-57
2022/12/30 12:04:54;;;;;;;34.53;26.60;;;;;;;11.50;66.71;100292.09;5052217;28;20201;-58
2022/12/30 12:07:25;;;;;;;37.07;26.90;;;;;;;11.65;66.60;100307.03;5050203;28;20238;-56
2022/12/30 12:10:01;;;;;;;35.63;28.47;;;;;;;11.70;66.92;100313.22;5060094;28;20188;-58
2022/12/30 12:12:35;;;;;;;38.47;29.97;;;;;;;11.70;67.17;100310.63;5068359;28;20265;-57
2022/12/30 12:15:13;;;;;;;40.23;30.17;;;;;;;11.70;66.87;100295.19;5066930;28;20223;-57
2022/12/30 12:17:47;;;;;;;38.27;28.73;;;;;;;11.74;66.80;100287.56;5071305;28;20198;-57
2022/12/30 12:20:22;;;;;;;44.60;31.70;;;;;;;11.80;66.89;100297.16;5069733;28;20556;-57
2022/12/30 12:23:01;;;;;;;40.95;32.85;;;;;;;11.79;66.70;100287.66;5069172;28;20449;-57
2022/12/30 12:25:34;;;;;;;38.00;28.77;;;;;;;11.68;65.76;100268.50;5068499;28;20651;-58
2022/12/30 12:28:02;;;;;;;35.73;28.23;;;;;;;11.62;66.03;100292.38;5072810;28;20257;-57
2022/12/30 12:30:50;;;;;;;39.63;29.37;;;;;;;11.65;66.46;100284.72;5073714;28;20206;-57